Time;durP1;ratioP1;P1;durP2;ratioP2;P2;SDS_P1;SDS_P2;PMS_P1;PMS_P2;Temp;Humidity;BMP_temperature;BMP_pressure;BME280_temperature;BME280_humidity;BME280_pressure;Samples;Min_cycle;Max_cycle;Signal;HPM_P1;HPM_P2
2021/05/26 00:02:25;;;;;;;11.45;7.68;;;;;;;;;;5080008;28;20888;-69
2021/05/26 00:04:52;;;;;;;12.68;8.48;;;;;;;;;;5085782;28;20431;-68
2021/05/26 00:07:18;;;;;;;12.48;7.80;;;;;;;;;;5077491;28;20861;-69
2021/05/26 00:09:44;;;;;;;13.45;8.07;;;;;;;;;;5084168;28;20881;-68
2021/05/26 00:12:12;;;;;;;11.23;7.57;;;;;;;;;;5082790;28;20719;-69
2021/05/26 00:14:38;;;;;;;13.32;7.80;;;;;;;;;;5081471;28;20402;-68
2021/05/26 00:17:04;;;;;;;12.77;7.90;;;;;;;;;;5086434;28;20406;-69
2021/05/26 00:19:30;;;;;;;13.68;8.18;;;;;;;;;;5084424;28;20398;-68
2021/05/26 00:21:56;;;;;;;19.38;8.00;;;;;;;;;;5081857;28;20410;-69
2021/05/26 00:24:22;;;;;;;14.63;8.50;;;;;;;;;;5084375;28;20556;-68
2021/05/26 00:26:48;;;;;;;14.45;8.65;;;;;;;;;;5080013;28;20423;-70
2021/05/26 00:29:14;;;;;;;14.73;8.15;;;;;;;;;;5084583;28;20412;-70
2021/05/26 00:31:40;;;;;;;15.53;8.50;;;;;;;;;;5081757;28;20864;-70
2021/05/26 00:34:06;;;;;;;12.20;8.57;;;;;;;;;;5085362;28;20490;-70
2021/05/26 00:36:32;;;;;;;13.27;7.82;;;;;;;;;;5085499;28;20876;-69
2021/05/26 00:38:58;;;;;;;13.43;9.00;;;;;;;;;;5079099;28;20446;-69
2021/05/26 00:41:31;;;;;;;12.65;8.70;;;;;;;;;;5080938;28;20467;-70
2021/05/26 00:43:57;;;;;;;16.27;8.37;;;;;;;;;;5080937;28;20475;-69
2021/05/26 00:46:23;;;;;;;12.60;8.40;;;;;;;;;;5084253;28;20417;-70
2021/05/26 00:48:49;;;;;;;14.82;9.15;;;;;;;;;;5086239;28;20413;-69
2021/05/26 00:51:15;;;;;;;14.73;8.93;;;;;;;;;;5081959;28;20413;-69
2021/05/26 00:53:41;;;;;;;16.70;9.00;;;;;;;;;;5081099;28;20732;-69
2021/05/26 00:56:09;;;;;;;17.00;8.77;;;;;;;;;;5079644;28;21431;-69
2021/05/26 00:58:35;;;;;;;15.10;8.98;;;;;;;;;;5080481;28;20905;-69
2021/05/26 01:01:01;;;;;;;17.35;9.15;;;;;;;;;;5080233;28;20455;-69
2021/05/26 01:03:28;;;;;;;15.82;9.45;;;;;;;;;;5082104;28;20495;-68
2021/05/26 01:05:54;;;;;;;14.87;8.77;;;;;;;;;;5078406;28;20911;-69
2021/05/26 01:08:20;;;;;;;15.70;8.75;;;;;;;;;;5078334;28;20402;-69
2021/05/26 01:10:46;;;;;;;14.40;8.85;;;;;;;;;;5074505;28;20393;-69
2021/05/26 01:13:12;;;;;;;14.10;8.25;;;;;;;;;;5080253;28;20390;-68
2021/05/26 01:15:38;;;;;;;18.65;9.27;;;;;;;;;;5078963;28;20439;-69
2021/05/26 01:18:17;;;;;;;15.30;8.73;;;;;;;;;;5080710;28;20452;-69
2021/05/26 01:20:43;;;;;;;15.77;8.15;;;;;;;;;;5078878;28;20402;-69
2021/05/26 01:23:09;;;;;;;16.50;8.98;;;;;;;;;;5079048;28;20407;-69
2021/05/26 01:25:35;;;;;;;15.35;8.18;;;;;;;;;;5077036;28;20494;-69
2021/05/26 01:28:01;;;;;;;16.23;8.60;;;;;;;;;;5080518;28;20969;-70
2021/05/26 01:30:27;;;;;;;12.27;7.88;;;;;;;;;;5077362;28;20417;-70
2021/05/26 01:32:53;;;;;;;13.07;8.10;;;;;;;;;;5096966;28;20392;-70
2021/05/26 01:35:20;;;;;;;12.43;8.20;;;;;;;;;;5074739;28;20382;-68
2021/05/26 01:37:47;;;;;;;13.00;7.47;;;;;;;;;;5081480;28;20413;-69
2021/05/26 01:40:14;;;;;;;16.13;7.47;;;;;;;;;;5076046;28;20720;-69
2021/05/26 01:42:40;;;;;;;13.13;6.88;;;;;;;;;;5080139;28;20402;-69
2021/05/26 01:45:08;;;;;;;12.50;6.82;;;;;;;;;;5081135;28;20406;-69
2021/05/26 01:47:34;;;;;;;13.60;7.05;;;;;;;;;;5079361;28;20474;-68
2021/05/26 01:50:00;;;;;;;14.65;6.65;;;;;;;;;;5073926;28;20424;-70
2021/05/26 01:52:26;;;;;;;12.70;5.90;;;;;;;;;;5079063;28;20413;-70
2021/05/26 01:54:52;;;;;;;11.73;5.88;;;;;;;;;;5077220;28;20405;-69
2021/05/26 01:57:18;;;;;;;10.30;5.95;;;;;;;;;;5076362;28;20411;-68
2021/05/26 01:59:44;;;;;;;11.20;5.80;;;;;;;;;;5078716;28;20402;-69
2021/05/26 02:02:10;;;;;;;11.68;5.53;;;;;;;;;;5075088;28;20406;-69
2021/05/26 02:04:36;;;;;;;12.13;5.53;;;;;;;;;;5080274;28;20400;-69
2021/05/26 02:07:11;;;;;;;8.93;4.78;;;;;;;;;;5077393;28;20916;-69
2021/05/26 02:09:37;;;;;;;10.77;5.45;;;;;;;;;;5074897;28;20409;-69
2021/05/26 02:12:21;;;;;;;11.15;4.97;;;;;;;;;;5078825;28;20429;-69
2021/05/26 02:14:47;;;;;;;9.52;4.80;;;;;;;;;;5076038;28;20478;-69
2021/05/26 02:17:13;;;;;;;9.77;4.65;;;;;;;;;;5077107;28;20721;-71
2021/05/26 02:19:39;;;;;;;8.17;4.30;;;;;;;;;;5079772;28;20411;-68
2021/05/26 02:22:06;;;;;;;9.07;4.22;;;;;;;;;;5075065;28;20888;-68
2021/05/26 02:24:32;;;;;;;8.68;4.18;;;;;;;;;;5076690;28;20875;-69
2021/05/26 02:26:58;;;;;;;8.50;4.17;;;;;;;;;;5071540;28;20492;-70
2021/05/26 02:29:24;;;;;;;8.23;3.78;;;;;;;;;;5076744;28;20404;-68
2021/05/26 02:31:50;;;;;;;12.20;3.97;;;;;;;;;;5076065;28;20794;-69
2021/05/26 02:34:17;;;;;;;7.32;3.70;;;;;;;;;;5078873;28;20413;-69
2021/05/26 02:36:42;;;;;;;7.65;3.72;;;;;;;;;;5076278;28;20482;-70
2021/05/26 02:39:09;;;;;;;6.68;3.83;;;;;;;;;;5079512;28;20473;-69
2021/05/26 02:41:35;;;;;;;7.60;3.63;;;;;;;;;;5076802;28;20444;-70
2021/05/26 02:44:01;;;;;;;6.43;3.63;;;;;;;;;;5075424;28;20402;-69
2021/05/26 02:46:27;;;;;;;6.97;3.50;;;;;;;;;;5075108;28;20433;-69
2021/05/26 02:48:53;;;;;;;7.55;3.70;;;;;;;;;;5077533;28;20454;-70
2021/05/26 02:51:20;;;;;;;8.63;3.70;;;;;;;;;;5076087;28;20888;-69
2021/05/26 02:53:46;;;;;;;7.40;3.08;;;;;;;;;;5074729;28;20418;-69
2021/05/26 02:56:11;;;;;;;6.60;3.53;;;;;;;;;;5080126;28;20836;-69
2021/05/26 02:58:38;;;;;;;5.80;3.13;;;;;;;;;;5071687;28;20410;-68
2021/05/26 03:01:04;;;;;;;5.30;3.10;;;;;;;;;;5075147;28;20596;-70
2021/05/26 03:03:30;;;;;;;7.35;3.47;;;;;;;;;;5075143;28;20411;-70
2021/05/26 03:05:56;;;;;;;6.50;2.65;;;;;;;;;;5075082;28;20400;-68
2021/05/26 03:08:22;;;;;;;6.43;2.90;;;;;;;;;;5077394;28;20492;-68
2021/05/26 03:10:48;;;;;;;5.53;2.90;;;;;;;;;;5079741;28;20735;-69
2021/05/26 03:13:14;;;;;;;5.50;3.00;;;;;;;;;;5076312;28;20907;-69
2021/05/26 03:15:40;;;;;;;7.05;2.83;;;;;;;;;;5076992;28;20390;-70
2021/05/26 03:18:06;;;;;;;4.97;2.47;;;;;;;;;;5078921;28;20863;-67
2021/05/26 03:20:33;;;;;;;5.55;2.72;;;;;;;;;;5075897;28;22084;-68
2021/05/26 03:22:59;;;;;;;6.50;2.72;;;;;;;;;;5075914;28;20722;-69
2021/05/26 03:25:25;;;;;;;5.72;2.35;;;;;;;;;;5074980;28;20405;-68
2021/05/26 03:27:51;;;;;;;4.05;1.90;;;;;;;;;;5077137;28;20482;-68
2021/05/26 03:30:19;;;;;;;5.50;2.70;;;;;;;;;;5076168;28;20403;-67
2021/05/26 03:32:45;;;;;;;4.90;2.35;;;;;;;;;;5076809;28;20420;-68
2021/05/26 03:35:13;;;;;;;5.95;2.30;;;;;;;;;;5074554;28;20399;-68
2021/05/26 03:37:39;;;;;;;4.97;2.05;;;;;;;;;;5080602;28;20405;-68
2021/05/26 03:40:06;;;;;;;4.80;2.17;;;;;;;;;;5071895;28;20479;-69
2021/05/26 03:42:33;;;;;;;6.10;2.13;;;;;;;;;;5074982;28;20466;-68
2021/05/26 03:44:59;;;;;;;5.07;2.40;;;;;;;;;;5073679;28;20386;-68
2021/05/26 03:47:25;;;;;;;5.43;2.30;;;;;;;;;;5078445;28;20529;-69
2021/05/26 03:49:51;;;;;;;5.10;2.15;;;;;;;;;;5078289;28;20720;-69
2021/05/26 03:52:17;;;;;;;4.63;2.33;;;;;;;;;;5073624;28;20398;-68
2021/05/26 03:54:43;;;;;;;4.67;2.30;;;;;;;;;;5079856;28;20468;-69
2021/05/26 03:57:09;;;;;;;4.68;2.35;;;;;;;;;;5075483;28;20853;-69
2021/05/26 03:59:35;;;;;;;5.82;2.80;;;;;;;;;;5076487;28;20959;-69
2021/05/26 04:02:01;;;;;;;6.90;3.10;;;;;;;;;;5074988;28;20487;-69
2021/05/26 04:04:28;;;;;;;4.65;2.70;;;;;;;;;;5074647;28;20408;-68
2021/05/26 04:06:54;;;;;;;8.60;3.28;;;;;;;;;;5076267;28;20415;-69
2021/05/26 04:09:21;;;;;;;5.75;2.92;;;;;;;;;;5077818;28;20455;-69
2021/05/26 04:11:47;;;;;;;6.97;2.95;;;;;;;;;;5073033;28;20867;-69
2021/05/26 04:14:14;;;;;;;5.32;3.10;;;;;;;;;;5073933;28;20402;-68
2021/05/26 04:16:40;;;;;;;6.37;3.20;;;;;;;;;;5076671;28;21115;-69
2021/05/26 04:19:07;;;;;;;6.18;2.97;;;;;;;;;;5074310;28;20408;-68
2021/05/26 04:21:33;;;;;;;5.80;3.20;;;;;;;;;;5074763;28;20410;-68
2021/05/26 04:23:59;;;;;;;9.30;3.67;;;;;;;;;;5074358;28;20394;-68
2021/05/26 04:26:25;;;;;;;8.32;3.67;;;;;;;;;;5080630;28;20482;-68
2021/05/26 04:28:52;;;;;;;7.22;3.65;;;;;;;;;;5077414;28;20394;-69
2021/05/26 04:31:18;;;;;;;9.00;4.20;;;;;;;;;;5081295;28;20389;-68
2021/05/26 04:33:45;;;;;;;10.57;4.45;;;;;;;;;;5083267;28;20463;-68
2021/05/26 04:36:11;;;;;;;7.85;4.47;;;;;;;;;;5079822;28;20433;-67
2021/05/26 04:38:37;;;;;;;8.75;4.93;;;;;;;;;;5080741;28;20407;-69
2021/05/26 04:41:05;;;;;;;12.67;6.10;;;;;;;;;;5080964;28;20401;-68
2021/05/26 04:43:31;;;;;;;10.50;6.10;;;;;;;;;;5081524;28;20405;-68
2021/05/26 04:45:57;;;;;;;12.70;6.17;;;;;;;;;;5081652;28;20407;-68
2021/05/26 04:48:23;;;;;;;10.88;6.28;;;;;;;;;;5082584;28;20410;-68
2021/05/26 04:50:49;;;;;;;9.90;6.63;;;;;;;;;;5082430;28;20425;-68
2021/05/26 04:53:15;;;;;;;10.65;6.05;;;;;;;;;;5073657;28;20720;-68
2021/05/26 04:55:41;;;;;;;12.77;7.63;;;;;;;;;;5077381;28;20434;-68
2021/05/26 04:58:08;;;;;;;13.45;7.80;;;;;;;;;;5081783;28;20404;-68
2021/05/26 05:00:35;;;;;;;13.10;7.47;;;;;;;;;;5078901;28;20429;-68
2021/05/26 05:03:01;;;;;;;13.15;8.68;;;;;;;;;;5078540;28;20874;-69
2021/05/26 05:05:33;;;;;;;12.40;8.95;;;;;;;;;;5076249;28;20402;-68
2021/05/26 05:08:03;;;;;;;17.05;10.05;;;;;;;;;;5076786;28;20796;-68
2021/05/26 05:10:29;;;;;;;16.60;10.27;;;;;;;;;;5078842;28;20401;-69
2021/05/26 05:12:55;;;;;;;15.77;9.67;;;;;;;;;;5077601;28;20388;-68
2021/05/26 05:15:21;;;;;;;15.10;9.88;;;;;;;;;;5080220;28;20398;-68
2021/05/26 05:17:47;;;;;;;17.55;10.18;;;;;;;;;;5077096;28;20523;-68
2021/05/26 05:20:19;;;;;;;17.08;10.60;;;;;;;;;;5078732;28;20415;-68
2021/05/26 05:22:45;;;;;;;18.00;11.05;;;;;;;;;;5076442;28;20390;-68
2021/05/26 05:25:11;;;;;;;18.42;10.73;;;;;;;;;;5075686;28;20766;-68
2021/05/26 05:27:37;;;;;;;14.97;9.47;;;;;;;;;;5075886;28;20584;-68
2021/05/26 05:30:04;;;;;;;20.92;10.13;;;;;;;;;;5078235;28;20422;-69
2021/05/26 05:32:30;;;;;;;17.17;9.85;;;;;;;;;;5074533;28;21040;-68
2021/05/26 05:34:56;;;;;;;20.67;10.88;;;;;;;;;;5076531;28;20694;-69
2021/05/26 05:37:22;;;;;;;18.02;9.20;;;;;;;;;;5076226;28;20406;-68
2021/05/26 05:39:48;;;;;;;14.43;9.13;;;;;;;;;;5076777;28;20398;-68
2021/05/26 05:42:14;;;;;;;17.67;9.48;;;;;;;;;;5076944;28;20398;-68
2021/05/26 05:44:40;;;;;;;18.23;8.67;;;;;;;;;;5082135;28;20406;-67
2021/05/26 05:47:06;;;;;;;15.90;9.27;;;;;;;;;;5076482;28;20481;-70
2021/05/26 05:49:32;;;;;;;16.15;9.02;;;;;;;;;;5075109;28;20492;-69
2021/05/26 05:51:58;;;;;;;17.33;9.63;;;;;;;;;;5075258;28;20480;-68
2021/05/26 05:54:24;;;;;;;19.98;10.15;;;;;;;;;;5077236;28;20806;-67
2021/05/26 05:56:50;;;;;;;18.23;10.68;;;;;;;;;;5078723;28;20391;-69
2021/05/26 05:59:16;;;;;;;17.70;9.93;;;;;;;;;;5072803;28;20392;-68
2021/05/26 06:01:41;;;;;;;19.37;11.30;;;;;;;;;;5079829;28;20403;-68
2021/05/26 06:04:07;;;;;;;17.45;10.07;;;;;;;;;;5077080;28;20770;-68
2021/05/26 06:06:34;;;;;;;17.77;10.23;;;;;;;;;;5076927;28;20431;-69
2021/05/26 06:08:59;;;;;;;20.23;10.25;;;;;;;;;;5077233;28;20411;-68
2021/05/26 06:11:25;;;;;;;19.03;10.77;;;;;;;;;;5076730;28;20481;-69
2021/05/26 06:13:51;;;;;;;18.77;11.13;;;;;;;;;;5078355;28;20449;-70
2021/05/26 06:16:17;;;;;;;19.17;11.63;;;;;;;;;;5075266;28;20383;-69
2021/05/26 06:18:43;;;;;;;20.40;11.38;;;;;;;;;;5078996;28;21078;-68
2021/05/26 06:21:09;;;;;;;19.47;11.30;;;;;;;;;;5077165;28;20893;-68
2021/05/26 06:23:35;;;;;;;21.17;12.98;;;;;;;;;;5077626;28;20717;-69
2021/05/26 06:26:02;;;;;;;22.85;13.63;;;;;;;;;;5076401;28;20799;-70
2021/05/26 06:28:28;;;;;;;23.48;13.73;;;;;;;;;;5075383;28;20429;-67
2021/05/26 06:30:57;;;;;;;20.27;13.67;;;;;;;;;;5079461;28;20453;-69
2021/05/26 06:33:23;;;;;;;22.75;13.40;;;;;;;;;;5080626;28;20860;-67
2021/05/26 06:35:50;;;;;;;21.88;13.25;;;;;;;;;;5081810;28;20500;-68
2021/05/26 06:38:17;;;;;;;22.63;13.57;;;;;;;;;;5082927;28;20412;-68
2021/05/26 06:40:44;;;;;;;19.50;13.57;;;;;;;;;;5084362;28;20450;-69
2021/05/26 06:43:11;;;;;;;17.35;14.10;;;;;;;;;;5083721;28;20399;-68
2021/05/26 06:45:37;;;;;;;21.27;13.98;;;;;;;;;;5078459;28;20396;-68
2021/05/26 06:48:03;;;;;;;21.17;14.40;;;;;;;;;;5077884;28;20528;-68
2021/05/26 06:50:29;;;;;;;22.30;14.95;;;;;;;;;;5081667;28;20488;-68
2021/05/26 06:52:55;;;;;;;20.85;14.00;;;;;;;;;;5085207;28;20926;-69
2021/05/26 06:55:21;;;;;;;22.80;14.63;;;;;;;;;;5083707;28;20398;-68
2021/05/26 06:57:47;;;;;;;19.90;13.70;;;;;;;;;;5083594;28;20410;-68
2021/05/26 07:00:13;;;;;;;22.27;13.13;;;;;;;;;;5077436;28;20401;-69
2021/05/26 07:02:39;;;;;;;19.98;13.90;;;;;;;;;;5083951;28;20429;-69
2021/05/26 07:05:05;;;;;;;22.35;13.52;;;;;;;;;;5076546;28;20429;-68
2021/05/26 07:07:31;;;;;;;22.30;12.93;;;;;;;;;;5081257;28;20850;-68
2021/05/26 07:09:57;;;;;;;20.30;14.27;;;;;;;;;;5080448;28;20886;-68
2021/05/26 07:12:23;;;;;;;19.58;13.25;;;;;;;;;;5087853;28;20381;-68
2021/05/26 07:14:49;;;;;;;20.77;12.90;;;;;;;;;;5088119;28;20472;-69
2021/05/26 07:17:15;;;;;;;22.17;13.55;;;;;;;;;;5076204;28;20427;-68
2021/05/26 07:19:41;;;;;;;20.48;13.02;;;;;;;;;;5088729;28;20429;-68
2021/05/26 07:22:07;;;;;;;17.80;12.52;;;;;;;;;;5087580;28;20432;-68
2021/05/26 07:24:33;;;;;;;19.73;13.00;;;;;;;;;;5080386;28;20398;-69
2021/05/26 07:26:59;;;;;;;18.35;11.95;;;;;;;;;;5084370;28;20432;-69
2021/05/26 07:29:25;;;;;;;19.38;13.13;;;;;;;;;;5079217;28;20423;-68
2021/05/26 07:31:51;;;;;;;21.42;12.48;;;;;;;;;;5082009;28;20399;-68
2021/05/26 07:34:17;;;;;;;16.30;11.33;;;;;;;;;;5075109;28;20402;-69
2021/05/26 07:36:43;;;;;;;18.17;12.02;;;;;;;;;;5083503;28;20413;-70
2021/05/26 07:39:09;;;;;;;17.08;12.07;;;;;;;;;;5081793;28;20787;-68
2021/05/26 07:41:35;;;;;;;21.42;12.88;;;;;;;;;;5084842;28;20410;-69
2021/05/26 07:44:01;;;;;;;18.65;12.23;;;;;;;;;;5080115;28;20421;-69
2021/05/26 07:46:27;;;;;;;17.23;12.38;;;;;;;;;;5084610;28;20406;-68
2021/05/26 07:48:53;;;;;;;17.60;11.17;;;;;;;;;;5081586;28;20844;-69
2021/05/26 07:51:27;;;;;;;16.27;11.55;;;;;;;;;;5100269;28;20409;-69
2021/05/26 07:53:54;;;;;;;17.83;11.93;;;;;;;;;;5076408;28;20393;-69
2021/05/26 07:56:20;;;;;;;18.13;11.73;;;;;;;;;;5082343;28;21124;-67
2021/05/26 07:58:46;;;;;;;16.13;10.27;;;;;;;;;;5084712;28;20506;-69
2021/05/26 08:01:12;;;;;;;19.88;11.77;;;;;;;;;;5093373;28;20384;-69
2021/05/26 08:03:38;;;;;;;15.88;11.20;;;;;;;;;;5076852;28;20403;-69
2021/05/26 08:06:04;;;;;;;19.30;11.50;;;;;;;;;;5085624;28;21046;-70
2021/05/26 08:08:30;;;;;;;13.88;10.65;;;;;;;;;;5079699;28;20851;-70
2021/05/26 08:10:57;;;;;;;16.38;11.30;;;;;;;;;;5080549;28;20410;-69
2021/05/26 08:13:23;;;;;;;16.20;10.97;;;;;;;;;;5084711;28;20742;-69
2021/05/26 08:15:49;;;;;;;15.75;10.43;;;;;;;;;;5102831;28;20431;-68
2021/05/26 08:18:20;;;;;;;16.70;10.95;;;;;;;;;;5078659;28;20398;-70
2021/05/26 08:20:47;;;;;;;16.25;10.82;;;;;;;;;;5083133;28;20385;-68
2021/05/26 08:23:14;;;;;;;15.75;10.27;;;;;;;;;;5089195;28;20436;-70
2021/05/26 08:25:41;;;;;;;16.73;10.80;;;;;;;;;;5080090;28;20397;-69
2021/05/26 08:28:09;;;;;;;15.27;10.35;;;;;;;;;;5084634;28;20421;-69
2021/05/26 08:30:36;;;;;;;16.73;9.93;;;;;;;;;;5076706;28;21160;-69
2021/05/26 08:33:03;;;;;;;15.27;10.00;;;;;;;;;;5081270;28;21101;-69
2021/05/26 08:35:29;;;;;;;16.25;11.32;;;;;;;;;;5089455;28;20861;-69
2021/05/26 08:37:56;;;;;;;16.48;11.07;;;;;;;;;;5089085;28;20398;-69
2021/05/26 08:40:22;;;;;;;16.45;9.70;;;;;;;;;;5091361;28;20450;-70
2021/05/26 08:42:48;;;;;;;17.85;10.32;;;;;;;;;;5087096;28;20423;-71
2021/05/26 08:45:15;;;;;;;15.38;10.13;;;;;;;;;;5099851;28;20460;-69
2021/05/26 08:47:42;;;;;;;17.15;10.40;;;;;;;;;;5088143;28;20478;-69
2021/05/26 08:50:08;;;;;;;13.77;9.50;;;;;;;;;;5087994;28;20873;-69
2021/05/26 08:52:34;;;;;;;14.32;9.20;;;;;;;;;;5088671;28;20866;-69
2021/05/26 08:55:01;;;;;;;13.98;8.48;;;;;;;;;;5080298;28;20402;-69
2021/05/26 08:57:27;;;;;;;16.33;7.78;;;;;;;;;;5081775;28;20401;-70
2021/05/26 08:59:53;;;;;;;14.05;8.32;;;;;;;;;;5084248;28;20732;-68
2021/05/26 09:02:19;;;;;;;12.82;8.20;;;;;;;;;;5084562;28;20979;-69
2021/05/26 09:04:45;;;;;;;11.15;7.53;;;;;;;;;;5077790;28;20397;-70
2021/05/26 09:07:12;;;;;;;13.60;7.13;;;;;;;;;;5079855;28;20899;-70
2021/05/26 09:10:01;;;;;;;11.02;6.85;;;;;;;;;;5083004;28;20421;-69
2021/05/26 09:12:27;;;;;;;10.55;6.60;;;;;;;;;;5077999;28;20425;-70
2021/05/26 09:14:54;;;;;;;10.87;5.93;;;;;;;;;;5087272;28;20486;-69
2021/05/26 09:17:20;;;;;;;11.13;5.82;;;;;;;;;;5081496;28;20470;-69
2021/05/26 09:19:47;;;;;;;8.93;5.75;;;;;;;;;;5082640;28;20407;-69
2021/05/26 09:22:18;;;;;;;8.88;5.32;;;;;;;;;;5089767;28;20390;-70
2021/05/26 09:24:44;;;;;;;8.48;5.07;;;;;;;;;;5080245;28;20419;-70
2021/05/26 09:27:12;;;;;;;12.48;5.38;;;;;;;;;;5090169;28;20424;-69
2021/05/26 09:29:38;;;;;;;9.15;5.53;;;;;;;;;;5081342;28;20430;-69
2021/05/26 09:32:19;;;;;;;10.05;5.50;;;;;;;;;;5084386;28;20425;-70
2021/05/26 09:34:47;;;;;;;14.07;5.88;;;;;;;;;;5080420;28;20446;-70
2021/05/26 09:37:17;;;;;;;12.45;5.50;;;;;;;;;;5082284;28;20394;-69
2021/05/26 09:39:45;;;;;;;10.07;5.20;;;;;;;;;;5080393;28;20392;-71
2021/05/26 09:42:43;;;;;;;11.75;4.90;;;;;;;;;;5087497;28;20412;-69
2021/05/26 09:45:10;;;;;;;10.75;3.58;;;;;;;;;;5053750;28;20500;-69
2021/05/26 09:47:40;;;;;;;8.70;3.58;;;;;;;;;;5080789;28;20471;-69
2021/05/26 09:50:18;;;;;;;8.10;3.60;;;;;;;;;;5083702;28;20414;-71
2021/05/26 09:52:54;;;;;;;8.48;3.58;;;;;;;;;;5083991;28;20406;-70
2021/05/26 09:55:20;;;;;;;9.00;3.35;;;;;;;;;;5079208;28;20408;-70
2021/05/26 09:57:51;;;;;;;5.95;2.97;;;;;;;;;;5088256;28;20396;-69
2021/05/26 10:00:18;;;;;;;7.65;3.20;;;;;;;;;;5084282;28;21120;-70
2021/05/26 10:02:45;;;;;;;8.05;3.13;;;;;;;;;;5080022;28;20672;-69
2021/05/26 10:05:14;;;;;;;7.32;3.22;;;;;;;;;;5078376;28;20504;-72
2021/05/26 10:07:41;;;;;;;8.13;3.15;;;;;;;;;;5081054;28;20500;-69
2021/05/26 10:10:09;;;;;;;6.95;2.70;;;;;;;;;;5080863;28;20484;-69
2021/05/26 10:12:38;;;;;;;7.93;3.08;;;;;;;;;;5078498;28;20928;-70
2021/05/26 10:15:04;;;;;;;6.70;2.70;;;;;;;;;;5080712;28;20394;-69
2021/05/26 10:17:36;;;;;;;7.10;2.72;;;;;;;;;;5080004;28;20475;-70
2021/05/26 10:20:03;;;;;;;8.50;3.08;;;;;;;;;;5085503;28;20400;-70
2021/05/26 10:22:29;;;;;;;8.85;3.08;;;;;;;;;;5083328;28;20386;-69
2021/05/26 10:24:56;;;;;;;6.93;2.83;;;;;;;;;;5087459;28;20415;-69
2021/05/26 10:27:33;;;;;;;9.33;2.53;;;;;;;;;;5085204;28;20451;-69
2021/05/26 10:30:01;;;;;;;5.22;1.98;;;;;;;;;;5084023;28;20417;-70
2021/05/26 10:32:29;;;;;;;8.52;1.85;;;;;;;;;;5080370;28;20407;-70
2021/05/26 10:34:55;;;;;;;4.20;1.50;;;;;;;;;;5075245;28;20396;-71
2021/05/26 10:37:25;;;;;;;6.78;2.28;;;;;;;;;;5078287;28;20409;-69
2021/05/26 10:39:51;;;;;;;6.18;2.15;;;;;;;;;;5081281;28;20804;-70
2021/05/26 10:42:27;;;;;;;7.72;2.90;;;;;;;;;;5078475;28;20923;-70
2021/05/26 10:45:02;;;;;;;6.20;2.92;;;;;;;;;;5082888;28;20418;-73
2021/05/26 10:47:41;;;;;;;8.48;2.53;;;;;;;;;;5077157;28;20452;-71
2021/05/26 10:50:15;;;;;;;5.93;2.38;;;;;;;;;;5081645;28;20416;-70
2021/05/26 10:52:56;;;;;;;4.57;1.90;;;;;;;;;;5084078;28;20451;-72
2021/05/26 10:55:43;;;;;;;4.30;1.70;;;;;;;;;;5079966;28;20458;-70
2021/05/26 10:58:25;;;;;;;4.13;1.50;;;;;;;;;;5079616;28;20401;-70
2021/05/26 11:01:03;;;;;;;4.13;1.67;;;;;;;;;;5079988;28;20862;-70
2021/05/26 11:03:30;;;;;;;4.32;1.38;;;;;;;;;;5077082;28;20459;-69
2021/05/26 11:06:13;;;;;;;3.90;1.40;;;;;;;;;;5083244;28;20848;-69
2021/05/26 11:08:45;;;;;;;5.07;1.70;;;;;;;;;;5081924;28;21004;-68
2021/05/26 11:11:28;;;;;;;4.23;1.60;;;;;;;;;;5096077;28;20401;-70
2021/05/26 11:14:04;;;;;;;4.93;1.63;;;;;;;;;;5083494;28;20401;-69
2021/05/26 11:16:50;;;;;;;4.05;1.77;;;;;;;;;;5081757;28;20423;-69
2021/05/26 11:19:22;;;;;;;4.88;1.88;;;;;;;;;;5069797;28;20399;-68
2021/05/26 11:21:54;;;;;;;4.20;2.00;;;;;;;;;;5077908;28;20554;-70
2021/05/26 11:24:21;;;;;;;5.00;2.28;;;;;;;;;;5079070;28;20419;-68
2021/05/26 11:26:47;;;;;;;4.50;2.28;;;;;;;;;;5073568;28;20450;-69
2021/05/26 11:29:13;;;;;;;6.00;2.38;;;;;;;;;;5081205;28;20442;-68
2021/05/26 11:31:39;;;;;;;4.47;2.20;;;;;;;;;;5079632;28;20405;-69
2021/05/26 11:34:08;;;;;;;4.05;2.00;;;;;;;;;;5078906;28;20483;-70
2021/05/26 11:36:47;;;;;;;5.07;2.38;;;;;;;;;;5075067;28;20458;-70
2021/05/26 11:39:17;;;;;;;5.28;2.00;;;;;;;;;;5082294;28;20421;-68
2021/05/26 11:41:43;;;;;;;7.50;2.00;;;;;;;;;;5082348;28;20402;-69
2021/05/26 11:44:11;;;;;;;5.50;2.03;;;;;;;;;;5079546;28;20398;-69
2021/05/26 11:46:37;;;;;;;3.77;1.60;;;;;;;;;;5076069;28;20411;-70
2021/05/26 11:49:10;;;;;;;4.85;1.65;;;;;;;;;;5076971;28;20495;-69
2021/05/26 11:51:38;;;;;;;4.50;1.38;;;;;;;;;;5079737;28;20844;-70
2021/05/26 11:54:04;;;;;;;4.03;1.45;;;;;;;;;;5081323;28;20402;-69
2021/05/26 11:56:30;;;;;;;5.15;1.60;;;;;;;;;;5077972;28;20462;-68
2021/05/26 11:58:56;;;;;;;4.00;1.35;;;;;;;;;;5075904;28;20425;-70
2021/05/26 12:01:32;;;;;;;2.45;1.30;;;;;;;;;;5082369;28;20774;-69
2021/05/26 12:03:59;;;;;;;3.78;1.25;;;;;;;;;;5075777;28;20391;-69
2021/05/26 12:06:25;;;;;;;3.80;1.20;;;;;;;;;;5081588;28;20414;-70
2021/05/26 12:08:53;;;;;;;4.47;1.23;;;;;;;;;;5081056;28;21010;-70
2021/05/26 12:11:22;;;;;;;3.28;1.10;;;;;;;;;;5088371;28;20710;-69
2021/05/26 12:13:48;;;;;;;4.20;1.30;;;;;;;;;;5081275;28;20461;-69
2021/05/26 12:16:15;;;;;;;6.40;1.00;;;;;;;;;;5079436;28;20398;-69
2021/05/26 12:18:50;;;;;;;3.30;1.00;;;;;;;;;;5082463;28;20497;-69
2021/05/26 12:21:16;;;;;;;3.10;0.97;;;;;;;;;;5081387;28;20839;-70
2021/05/26 12:23:44;;;;;;;3.17;1.00;;;;;;;;;;5080283;28;20410;-70
2021/05/26 12:26:34;;;;;;;2.03;1.08;;;;;;;;;;5077143;28;20414;-70
2021/05/26 12:29:05;;;;;;;2.03;1.00;;;;;;;;;;5076002;28;20411;-69
2021/05/26 12:31:31;;;;;;;3.70;1.08;;;;;;;;;;5080838;28;20409;-69
2021/05/26 12:33:59;;;;;;;2.70;1.00;;;;;;;;;;5076129;28;20883;-70
2021/05/26 12:36:27;;;;;;;1.80;0.80;;;;;;;;;;5069688;28;20759;-70
2021/05/26 12:38:57;;;;;;;2.75;1.00;;;;;;;;;;5073980;28;20398;-69
2021/05/26 12:41:39;;;;;;;2.13;0.88;;;;;;;;;;5075675;28;20421;-69
2021/05/26 12:44:11;;;;;;;3.20;1.00;;;;;;;;;;5071078;28;20410;-69
2021/05/26 12:46:44;;;;;;;2.80;1.23;;;;;;;;;;5074843;28;20520;-70
2021/05/26 12:49:41;;;;;;;3.40;1.10;;;;;;;;;;5072591;28;20475;-70
2021/05/26 12:52:09;;;;;;;4.45;1.30;;;;;;;;;;5069387;28;20416;-70
2021/05/26 12:54:49;;;;;;;4.63;1.50;;;;;;;;;;5083474;28;20398;-70
2021/05/26 12:57:21;;;;;;;3.83;1.30;;;;;;;;;;5077734;28;20411;-70
2021/05/26 12:59:59;;;;;;;3.90;1.50;;;;;;;;;;5083530;28;20401;-71
2021/05/26 13:02:40;;;;;;;4.43;1.55;;;;;;;;;;5074949;28;20579;-70
2021/05/26 13:05:08;;;;;;;3.85;1.65;;;;;;;;;;5079452;28;20407;-70
2021/05/26 13:07:43;;;;;;;4.47;1.50;;;;;;;;;;5079539;28;20474;-70
2021/05/26 13:10:15;;;;;;;4.55;1.90;;;;;;;;;;5086532;28;20465;-70
2021/05/26 13:12:44;;;;;;;4.78;1.70;;;;;;;;;;5084939;28;20431;-70
2021/05/26 13:15:30;;;;;;;4.80;1.67;;;;;;;;;;5084080;28;20407;-70
2021/05/26 13:17:57;;;;;;;3.60;1.45;;;;;;;;;;5081541;28;20977;-70
2021/05/26 13:20:28;;;;;;;6.18;1.60;;;;;;;;;;5083412;28;20406;-70
2021/05/26 13:22:56;;;;;;;6.57;1.85;;;;;;;;;;5082766;28;20443;-71
2021/05/26 13:25:22;;;;;;;5.70;2.00;;;;;;;;;;5087812;28;20394;-70
2021/05/26 13:27:51;;;;;;;4.03;1.67;;;;;;;;;;5083613;28;20501;-69
2021/05/26 13:30:19;;;;;;;5.70;1.77;;;;;;;;;;5086884;28;20409;-70
2021/05/26 13:32:45;;;;;;;5.32;1.80;;;;;;;;;;5080961;28;20876;-70
2021/05/26 13:35:11;;;;;;;4.83;1.93;;;;;;;;;;5078426;28;20987;-69
2021/05/26 13:37:37;;;;;;;5.55;1.83;;;;;;;;;;5083349;28;20390;-70
2021/05/26 13:40:04;;;;;;;4.85;1.70;;;;;;;;;;5077194;28;20405;-70
2021/05/26 13:42:29;;;;;;;6.13;1.73;;;;;;;;;;5084882;28;20707;-70
2021/05/26 13:44:55;;;;;;;6.00;1.50;;;;;;;;;;5085403;28;20396;-70
2021/05/26 13:47:21;;;;;;;5.25;1.70;;;;;;;;;;5089339;28;20798;-70
2021/05/26 13:49:47;;;;;;;5.70;1.80;;;;;;;;;;5079992;28;20430;-71
2021/05/26 13:52:14;;;;;;;6.38;1.80;;;;;;;;;;5082262;28;20853;-70
2021/05/26 13:54:40;;;;;;;6.18;1.92;;;;;;;;;;5078140;28;20409;-72
2021/05/26 13:57:06;;;;;;;7.32;2.00;;;;;;;;;;5081566;28;20394;-70
2021/05/26 13:59:32;;;;;;;4.97;1.67;;;;;;;;;;5079700;28;20413;-71
2021/05/26 14:01:58;;;;;;;5.25;1.42;;;;;;;;;;5086028;28;20390;-71
2021/05/26 14:04:25;;;;;;;6.33;2.03;;;;;;;;;;5080824;28;20419;-71
2021/05/26 14:06:51;;;;;;;4.13;1.40;;;;;;;;;;5080604;28;20416;-70
2021/05/26 14:09:17;;;;;;;5.07;1.50;;;;;;;;;;5081514;28;20388;-71
2021/05/26 14:11:43;;;;;;;5.82;1.63;;;;;;;;;;5081199;28;20386;-71
2021/05/26 14:14:09;;;;;;;6.43;1.55;;;;;;;;;;5082567;28;20404;-71
2021/05/26 14:16:34;;;;;;;2.78;1.25;;;;;;;;;;5084322;28;20413;-70
2021/05/26 14:19:01;;;;;;;4.95;1.50;;;;;;;;;;5085489;28;20481;-69
2021/05/26 14:21:27;;;;;;;4.78;1.38;;;;;;;;;;5083793;28;20394;-70
2021/05/26 14:23:54;;;;;;;3.75;1.58;;;;;;;;;;5083727;28;20408;-71
2021/05/26 14:26:20;;;;;;;4.70;1.80;;;;;;;;;;5076842;28;20403;-70
2021/05/26 14:28:46;;;;;;;2.97;1.20;;;;;;;;;;5083899;28;20391;-70
2021/05/26 14:31:14;;;;;;;5.68;1.70;;;;;;;;;;5081529;28;20440;-71
2021/05/26 14:33:40;;;;;;;3.50;1.40;;;;;;;;;;5081582;28;20728;-70
2021/05/26 14:36:06;;;;;;;4.73;1.40;;;;;;;;;;5082666;28;20399;-70
2021/05/26 14:38:46;;;;;;;5.53;1.50;;;;;;;;;;5085050;28;20891;-71